createdAt,value
2023-01-11T00:00:58.734Z,95307.66
2023-01-11T00:06:00.885Z,95309.25
2023-01-11T00:11:03.862Z,95305.81
2023-01-11T00:16:07.957Z,95314.03
2023-01-11T00:21:10.427Z,95300.81
2023-01-11T00:26:13.367Z,95286.19
2023-01-11T00:31:16.518Z,95226.47
2023-01-11T00:36:21.568Z,95277.75
2023-01-11T00:41:42.517Z,95266.84
2023-01-11T00:47:03.441Z,95224.81
2023-01-11T00:52:09.686Z,95265.53
2023-01-11T00:57:12.503Z,95261.78
2023-01-11T01:02:14.921Z,95270.03
2023-01-11T01:07:16.897Z,95269.75
2023-01-11T01:12:39.153Z,95233.00
2023-01-11T01:17:41.385Z,95254.38
2023-01-11T01:22:43.438Z,95259.97
2023-01-11T01:27:45.521Z,95265.03
2023-01-11T01:32:47.610Z,95264.47
2023-01-11T01:37:49.724Z,95258.38
2023-01-11T01:42:55.504Z,95251.75
2023-01-11T01:48:01.779Z,95258.91
2023-01-11T01:53:09.270Z,95262.63
2023-01-11T01:58:13.962Z,95253.88
2023-01-11T02:03:21.637Z,95251.22
2023-01-11T02:08:33.472Z,95243.28
2023-01-11T02:13:46.290Z,95206.81
2023-01-11T02:18:48.486Z,95233.50
2023-01-11T02:24:30.418Z,95236.72
2023-01-11T02:29:57.408Z,95242.53
2023-01-11T02:35:27.009Z,95243.56
2023-01-11T02:41:02.717Z,95236.97
2023-01-11T02:46:06.914Z,95237.47
2023-01-11T02:51:13.517Z,95234.31
2023-01-11T02:56:37.812Z,95235.38
2023-01-11T03:01:51.912Z,95242.03
2023-01-11T03:07:06.145Z,95226.66
2023-01-11T03:12:48.954Z,95218.94
2023-01-11T03:18:15.033Z,95187.75
2023-01-11T03:23:29.408Z,95202.25
2023-01-11T03:29:01.471Z,95169.47
2023-01-11T03:34:20.051Z,95188.25
2023-01-11T03:39:40.432Z,95177.91
2023-01-11T03:44:50.906Z,95180.78
2023-01-11T03:49:56.781Z,95181.59
2023-01-11T03:54:59.301Z,95174.44
2023-01-11T04:00:01.405Z,95167.03
2023-01-11T04:05:11.245Z,95158.53
2023-01-11T04:10:13.499Z,95168.34
2023-01-11T04:15:16.352Z,95163.59
2023-01-11T04:20:18.455Z,95129.75
2023-01-11T04:25:20.343Z,95162.78
2023-01-11T04:30:22.790Z,95145.84
2023-01-11T04:35:26.183Z,95155.13
2023-01-11T04:40:28.216Z,95150.88
2023-01-11T04:45:30.784Z,95120.44
2023-01-11T04:50:32.792Z,95143.44
2023-01-11T04:55:34.840Z,95136.78
2023-01-11T05:00:36.802Z,95140.78
2023-01-11T05:05:39.165Z,95153.72
2023-01-11T05:10:41.306Z,95153.72
2023-01-11T05:15:43.483Z,95159.84
2023-01-11T05:20:49.313Z,95154.53
2023-01-11T05:25:51.230Z,95163.84
2023-01-11T05:30:56.585Z,95126.59
2023-01-11T05:36:04.279Z,95157.78
2023-01-11T05:41:08.205Z,95166.00
2023-01-11T05:46:10.608Z,95159.91
2023-01-11T05:51:12.525Z,95158.59
2023-01-11T05:56:14.491Z,95166.00
2023-01-11T06:01:17.780Z,95174.75
2023-01-11T06:06:20.819Z,95175.00
2023-01-11T06:11:22.849Z,95185.06
2023-01-11T06:16:25.104Z,95182.66
2023-01-11T06:21:27.262Z,95185.06
2023-01-11T06:26:29.291Z,95186.41
2023-01-11T06:31:31.429Z,95191.94
2023-01-11T06:36:33.577Z,95195.34
2023-01-11T06:41:35.520Z,95187.94
2023-01-11T06:46:37.516Z,95196.19
2023-01-11T06:51:39.451Z,95198.59
2023-01-11T06:56:41.424Z,95199.66
2023-01-11T07:01:43.371Z,95199.38
2023-01-11T07:06:45.586Z,95201.50
2023-01-11T07:11:47.854Z,95192.81
2023-01-11T07:16:49.897Z,95201.75
2023-01-11T07:21:52.173Z,95190.34
2023-01-11T07:26:56.341Z,95186.34
2023-01-11T07:31:58.567Z,95168.09
2023-01-11T07:37:01.717Z,95185.59
2023-01-11T07:42:22.870Z,95196.69
2023-01-11T07:47:24.973Z,95200.41
2023-01-11T07:52:27.184Z,95208.59
2023-01-11T07:57:30.090Z,95206.75
2023-01-11T08:02:32.441Z,95195.09
2023-01-11T08:07:34.629Z,95198.75
2023-01-11T08:13:01.253Z,95201.13
2023-01-11T08:18:04.645Z,95221.31
2023-01-11T08:23:09.295Z,95204.59
2023-01-11T08:28:12.150Z,95213.31
2023-01-11T08:33:14.228Z,95220.19
2023-01-11T08:38:16.336Z,95220.50
2023-01-11T08:43:18.452Z,95249.63
2023-01-11T08:48:20.360Z,95246.16
2023-01-11T08:53:22.453Z,95258.13
2023-01-11T08:58:25.618Z,95270.88
2023-01-11T09:03:28.770Z,95267.72
2023-01-11T09:08:30.928Z,95269.84
2023-01-11T09:13:33.077Z,95265.56
2023-01-11T09:18:35.259Z,95272.69
2023-01-11T09:23:37.899Z,95275.63
2023-01-11T09:28:40.472Z,95276.19
2023-01-11T09:33:42.516Z,95286.50
2023-01-11T09:38:44.608Z,95288.84
2023-01-11T09:43:53.620Z,95266.09
2023-01-11T09:48:59.736Z,95271.91
2023-01-11T09:54:06.159Z,95291.44
2023-01-11T09:59:21.150Z,95272.31
2023-01-11T10:05:19.721Z,95308.41
2023-01-11T10:18:31.359Z,95318.97
2023-01-11T10:22:40.816Z,95329.56
2023-01-11T10:35:47.904Z,95291.94
2023-01-11T10:41:22.346Z,95284.44
2023-01-11T10:46:26.195Z,95266.13
2023-01-11T10:51:32.980Z,95258.88
2023-01-11T11:03:26.949Z,95296.09
2023-01-11T11:08:28.981Z,95280.00
2023-01-11T11:13:34.276Z,95283.84
2023-01-11T11:18:36.475Z,95279.78
2023-01-11T11:29:23.770Z,95317.22
2023-01-11T11:34:27.600Z,95312.91
2023-01-11T11:46:42.295Z,95280.56
2023-01-11T11:51:46.209Z,95279.19
2023-01-11T11:56:48.978Z,95277.28
2023-01-11T12:09:31.044Z,95275.78
2023-01-11T12:14:35.399Z,95269.72
2023-01-11T12:19:42.797Z,95249.69
2023-01-11T12:24:48.437Z,95262.34
2023-01-11T12:30:34.084Z,95262.06
2023-01-11T12:35:57.154Z,95214.81
2023-01-11T12:41:08.852Z,95227.72
2023-01-11T12:46:44.578Z,95201.38
2023-01-11T12:51:58.694Z,95212.28
2023-01-11T12:57:31.937Z,95186.31
2023-01-11T13:03:01.696Z,95180.59
2023-01-11T13:08:09.345Z,95205.53
2023-01-11T13:13:21.008Z,95206.50
2023-01-11T13:18:34.257Z,95214.75
2023-01-11T13:23:44.864Z,95220.50
2023-01-11T13:28:52.191Z,95205.47
2023-01-11T13:33:59.601Z,95203.53
2023-01-11T13:39:36.632Z,95225.97
2023-01-11T13:44:44.034Z,95213.38
2023-01-11T13:50:06.089Z,95195.13
2023-01-11T13:55:25.047Z,95183.34
2023-01-11T14:00:50.378Z,95216.47
2023-01-11T14:06:07.837Z,95215.41
2023-01-11T14:11:15.796Z,95193.66
2023-01-11T14:16:27.848Z,95169.41
2023-01-11T14:21:54.155Z,95181.88
2023-01-11T14:27:05.829Z,95201.94
2023-01-11T14:32:32.205Z,95202.44
2023-01-11T14:38:21.950Z,95195.34
2023-01-11T14:43:45.711Z,95196.66
2023-01-11T14:49:25.979Z,95174.63
2023-01-11T14:54:32.628Z,95190.63
2023-01-11T14:59:37.481Z,95204.75
2023-01-11T15:04:59.926Z,95220.06
2023-01-11T15:10:38.106Z,95211.13
2023-01-11T15:15:58.789Z,95225.16
2023-01-11T15:21:05.691Z,95208.81
2023-01-11T15:26:09.796Z,95204.84
2023-01-11T15:31:34.230Z,95207.44
2023-01-11T15:36:57.873Z,95230.34
2023-01-11T15:42:05.640Z,95229.09
2023-01-11T15:47:38.292Z,95243.59
2023-01-11T15:53:12.303Z,95233.47
2023-01-11T15:58:35.992Z,95239.22
2023-01-11T16:04:00.878Z,95212.22
2023-01-11T16:09:24.292Z,95224.97
2023-01-11T16:14:39.764Z,95240.06
2023-01-11T16:19:45.233Z,95252.09
2023-01-11T16:24:49.537Z,95244.53
2023-01-11T16:29:51.931Z,95251.00
2023-01-11T16:34:55.337Z,95257.72
2023-01-11T16:40:12.950Z,95267.31
2023-01-11T16:45:20.778Z,95275.50
2023-01-11T16:50:28.557Z,95248.53
2023-01-11T16:55:32.734Z,95273.44
2023-01-11T17:00:39.962Z,95272.50
2023-01-11T17:05:42.090Z,95283.75
2023-01-11T17:10:45.236Z,95288.97
2023-01-11T17:15:58.926Z,95293.28
2023-01-11T17:21:00.984Z,95299.00
2023-01-11T17:26:03.388Z,95301.72
2023-01-11T17:31:05.447Z,95310.50
2023-01-11T17:36:08.275Z,95326.78
2023-01-11T17:41:34.531Z,95337.25
2023-01-11T17:46:36.580Z,95344.50
2023-01-11T17:51:40.621Z,95293.00
2023-01-11T17:56:42.654Z,95340.09
2023-01-11T18:01:52.868Z,95356.25
2023-01-11T18:07:19.935Z,95374.31
2023-01-11T18:12:23.730Z,95384.44
2023-01-11T18:17:40.471Z,95383.13
2023-01-11T18:22:56.120Z,95378.44
2023-01-11T18:28:24.613Z,95405.75
2023-01-11T18:33:32.121Z,95391.78
2023-01-11T18:38:35.969Z,95406.88
2023-01-11T18:43:38.128Z,95425.44
2023-01-11T18:48:40.162Z,95428.91
2023-01-11T18:53:42.084Z,95437.72
2023-01-11T18:58:44.183Z,95437.47
2023-01-11T19:03:46.412Z,95439.09
2023-01-11T19:08:48.840Z,95418.75
2023-01-11T19:13:50.946Z,95437.28
2023-01-11T19:18:55.772Z,95442.09
2023-01-11T19:23:58.852Z,95422.81
2023-01-11T19:29:01.032Z,95431.03
2023-01-11T19:34:03.119Z,95458.09
2023-01-11T19:39:05.973Z,95473.72
2023-01-11T19:44:07.976Z,95461.53
2023-01-11T19:49:10.048Z,95466.56
2023-01-11T19:54:14.791Z,95485.13
2023-01-11T19:59:16.972Z,95483.56
2023-01-11T20:04:20.114Z,95504.25
2023-01-11T20:09:22.244Z,95486.22
2023-01-11T20:14:25.308Z,95504.00
2023-01-11T20:19:27.441Z,95489.38
2023-01-11T20:24:30.171Z,95515.66
2023-01-11T20:29:32.255Z,95496.28
2023-01-11T20:34:34.386Z,95514.56
2023-01-11T20:39:36.375Z,95506.88
2023-01-11T20:44:38.500Z,95498.94
2023-01-11T20:49:40.721Z,95503.41
2023-01-11T20:54:42.684Z,95503.41
2023-01-11T20:59:44.666Z,95501.03
2023-01-11T21:04:46.752Z,95503.94
2023-01-11T21:09:48.781Z,95465.50
2023-01-11T21:14:50.830Z,95514.28
2023-01-11T21:19:54.164Z,95523.81
2023-01-11T21:24:56.259Z,95517.97
2023-01-11T21:29:58.301Z,95506.84
2023-01-11T21:35:00.398Z,95508.91
2023-01-11T21:40:02.462Z,95494.31
2023-01-11T21:45:05.631Z,95518.47
2023-01-11T21:50:08.998Z,95523.44
2023-01-11T21:55:14.364Z,95520.53
2023-01-11T22:00:17.575Z,95527.38
2023-01-11T22:05:19.893Z,95542.72
2023-01-11T22:10:22.010Z,95531.56
2023-01-11T22:15:24.031Z,95536.84
2023-01-11T22:20:27.544Z,95535.22
2023-01-11T22:25:29.504Z,95537.03
2023-01-11T22:30:31.496Z,95538.53
2023-01-11T22:35:33.663Z,95565.03
2023-01-11T22:40:35.671Z,95549.75
2023-01-11T22:45:37.687Z,95574.28
2023-01-11T22:50:39.809Z,95588.91
2023-01-11T22:55:41.820Z,95595.00
2023-01-11T23:00:43.930Z,95600.56
2023-01-11T23:05:46.469Z,95585.16
2023-01-11T23:10:48.779Z,95523.44
2023-01-11T23:15:54.706Z,95485.34
2023-01-11T23:21:02.929Z,95484.75
2023-01-11T23:26:06.136Z,95509.53
2023-01-11T23:31:15.335Z,95519.84
2023-01-11T23:36:18.917Z,95543.03
2023-01-11T23:41:40.343Z,95528.66
2023-01-11T23:47:01.091Z,95541.91
2023-01-11T23:52:03.437Z,95514.13
2023-01-11T23:57:05.640Z,95518.94
